Time,TemperatureF,DewpointF,PressureIn,WindDirection,WindDirectionDegrees,WindSpeedMPH,WindSpeedGustMPH,Humidity,HourlyPrecipIn,Conditions,Clouds,dailyrainin,SoftwareType,DateUTC
2013-02-12 00:13:00,44.8,42.0,29.72,SW,222,1.0,5.0,88,0.00,,,0.00,weatherlink.com 1.10,2013-02-12 05:13:00,
2013-02-12 00:28:00,44.5,41.0,29.72,NW,307,1.0,4.0,88,0.00,,,0.00,weatherlink.com 1.10,2013-02-12 05:28:00,
2013-02-12 00:43:00,44.1,41.0,29.71,West,271,0.0,2.0,88,0.00,,,0.00,weatherlink.com 1.10,2013-02-12 05:43:00,
2013-02-12 00:58:00,44.0,41.0,29.71,WNW,294,1.0,3.0,88,0.00,,,0.00,weatherlink.com 1.10,2013-02-12 05:58:00,
2013-02-12 01:13:00,44.3,40.0,29.71,WNW,294,2.0,5.0,86,0.00,,,0.00,weatherlink.com 1.10,2013-02-12 06:13:00,
2013-02-12 01:28:00,44.1,40.0,29.72,West,280,5.0,10.0,85,0.00,,,0.00,weatherlink.com 1.10,2013-02-12 06:28:00,
2013-02-12 01:43:00,44.3,36.0,29.73,NW,310,15.0,22.0,72,0.00,,,0.00,weatherlink.com 1.10,2013-02-12 06:43:00,
2013-02-12 01:58:00,44.0,33.0,29.73,NW,304,6.0,22.0,65,0.00,,,0.00,weatherlink.com 1.10,2013-02-12 06:58:00,
2013-02-12 02:13:00,43.6,31.0,29.73,WSW,257,6.0,20.0,62,0.00,,,0.00,weatherlink.com 1.10,2013-02-12 07:13:00,
2013-02-12 02:28:00,43.0,30.0,29.73,WNW,287,13.0,22.0,60,0.00,,,0.00,weatherlink.com 1.10,2013-02-12 07:28:00,
2013-02-12 02:43:00,42.6,29.0,29.74,NW,315,10.0,15.0,59,0.00,,,0.00,weatherlink.com 1.10,2013-02-12 07:43:00,
2013-02-12 02:58:00,42.3,29.0,29.74,NW,314,7.0,18.0,59,0.00,,,0.00,weatherlink.com 1.10,2013-02-12 07:58:00,
2013-02-12 03:13:00,41.9,28.0,29.75,WNW,297,8.0,17.0,59,0.00,,,0.00,weatherlink.com 1.10,2013-02-12 08:13:00,
2013-02-12 03:28:00,41.8,28.0,29.75,West,267,7.0,17.0,59,0.00,,,0.00,weatherlink.com 1.10,2013-02-12 08:28:00,
2013-02-12 03:43:00,41.7,29.0,29.76,WNW,291,10.0,19.0,60,0.00,,,0.00,weatherlink.com 1.10,2013-02-12 08:43:00,
2013-02-12 03:58:00,41.5,28.0,29.77,NW,316,9.0,11.0,60,0.00,,,0.00,weatherlink.com 1.10,2013-02-12 08:58:00,
2013-02-12 04:13:00,41.4,28.0,29.77,WNW,300,3.0,12.0,60,0.00,,,0.00,weatherlink.com 1.10,2013-02-12 09:13:00,
2013-02-12 04:28:00,41.3,28.0,29.77,West,267,2.0,14.0,60,0.00,,,0.00,weatherlink.com 1.10,2013-02-12 09:28:00,
2013-02-12 04:43:00,41.1,28.0,29.77,WNW,285,4.0,10.0,60,0.00,,,0.00,weatherlink.com 1.10,2013-02-12 09:43:00,
2013-02-12 04:58:00,41.0,28.0,29.77,West,281,6.0,12.0,60,0.00,,,0.00,weatherlink.com 1.10,2013-02-12 09:58:00,
2013-02-12 05:13:00,41.0,28.0,29.77,WNW,295,5.0,13.0,61,0.00,,,0.00,weatherlink.com 1.10,2013-02-12 10:13:00,
2013-02-12 05:28:00,41.0,28.0,29.77,West,269,9.0,16.0,60,0.00,,,0.00,weatherlink.com 1.10,2013-02-12 10:28:00,
2013-02-12 05:43:00,41.3,28.0,29.77,WNW,285,3.0,15.0,60,0.00,,,0.00,weatherlink.com 1.10,2013-02-12 10:43:00,
2013-02-12 05:58:00,41.4,28.0,29.78,West,259,7.0,19.0,59,0.00,,,0.00,weatherlink.com 1.10,2013-02-12 10:58:00,
2013-02-12 06:13:00,41.3,28.0,29.79,NW,311,5.0,16.0,59,0.00,,,0.00,weatherlink.com 1.10,2013-02-12 11:13:00,
2013-02-12 06:29:00,41.3,28.0,29.79,NNW,345,11.0,18.0,59,0.00,,,0.00,weatherlink.com 1.10,2013-02-12 11:29:00,
2013-02-12 06:44:00,41.3,27.0,29.79,West,264,12.0,23.0,58,0.00,,,0.00,weatherlink.com 1.10,2013-02-12 11:44:00,
2013-02-12 06:59:00,41.3,28.0,29.80,NW,314,7.0,13.0,59,0.00,,,0.00,weatherlink.com 1.10,2013-02-12 11:59:00,
2013-02-12 07:14:00,41.3,27.0,29.81,West,276,3.0,14.0,58,0.00,,,0.00,weatherlink.com 1.10,2013-02-12 12:14:00,
2013-02-12 07:29:00,41.3,27.0,29.82,WNW,298,9.0,15.0,58,0.00,,,0.00,weatherlink.com 1.10,2013-02-12 12:29:00,
2013-02-12 07:44:00,41.3,27.0,29.83,West,271,5.0,14.0,58,0.00,,,0.00,weatherlink.com 1.10,2013-02-12 12:44:00,
2013-02-12 07:59:00,41.3,28.0,29.83,WNW,298,2.0,9.0,59,0.00,,,0.00,weatherlink.com 1.10,2013-02-12 12:59:00,
2013-02-12 08:14:00,41.6,28.0,29.83,WNW,283,4.0,8.0,58,0.00,,,0.00,weatherlink.com 1.10,2013-02-12 13:14:00,
2013-02-12 08:29:00,42.0,28.0,29.84,West,267,2.0,9.0,57,0.00,,,0.00,weatherlink.com 1.10,2013-02-12 13:29:00,
2013-02-12 08:44:00,42.2,27.0,29.84,West,278,3.0,11.0,56,0.00,,,0.00,weatherlink.com 1.10,2013-02-12 13:44:00,
2013-02-12 08:59:00,42.7,28.0,29.85,WNW,287,5.0,7.0,56,0.00,,,0.00,weatherlink.com 1.10,2013-02-12 13:59:00,
2013-02-12 09:14:00,42.8,27.0,29.86,West,276,2.0,9.0,54,0.00,,,0.00,weatherlink.com 1.10,2013-02-12 14:14:00,
2013-02-12 09:29:00,42.4,27.0,29.86,NW,305,1.0,12.0,55,0.00,,,0.00,weatherlink.com 1.10,2013-02-12 14:29:00,
2013-02-12 09:44:00,42.5,28.0,29.85,NW,308,1.0,12.0,56,0.00,,,0.00,weatherlink.com 1.10,2013-02-12 14:44:00,
2013-02-12 09:59:00,42.8,27.0,29.85,West,280,3.0,10.0,54,0.00,,,0.00,weatherlink.com 1.10,2013-02-12 14:59:00,
2013-02-12 10:14:00,42.8,27.0,29.86,NNW,329,4.0,16.0,54,0.00,,,0.00,weatherlink.com 1.10,2013-02-12 15:14:00,
2013-02-12 10:29:00,42.9,27.0,29.86,West,259,13.0,14.0,53,0.00,,,0.00,weatherlink.com 1.10,2013-02-12 15:29:00,
2013-02-12 10:44:00,43.0,27.0,29.87,WNW,291,5.0,11.0,54,0.00,,,0.00,weatherlink.com 1.10,2013-02-12 15:44:00,
2013-02-12 10:59:00,43.1,27.0,29.87,WNW,302,2.0,17.0,53,0.00,,,0.00,weatherlink.com 1.10,2013-02-12 15:59:00,
2013-02-12 11:14:00,43.5,27.0,29.87,WNW,287,4.0,20.0,52,0.00,,,0.00,weatherlink.com 1.10,2013-02-12 16:14:00,
2013-02-12 11:29:00,43.5,27.0,29.87,WNW,298,4.0,13.0,52,0.00,,,0.00,weatherlink.com 1.10,2013-02-12 16:29:00,
2013-02-12 11:44:00,43.7,27.0,29.88,NW,309,6.0,13.0,52,0.00,,,0.00,weatherlink.com 1.10,2013-02-12 16:44:00,
2013-02-12 11:59:00,43.8,27.0,29.87,West,280,5.0,15.0,52,0.00,,,0.00,weatherlink.com 1.10,2013-02-12 16:59:00,
2013-02-12 12:14:00,44.4,28.0,29.88,WNW,298,10.0,16.0,52,0.00,,,0.00,weatherlink.com 1.10,2013-02-12 17:14:00,
2013-02-12 12:29:00,44.2,27.0,29.88,NW,316,10.0,17.0,51,0.00,,,0.00,weatherlink.com 1.10,2013-02-12 17:29:00,
2013-02-12 12:44:00,44.7,27.0,29.87,WNW,287,7.0,16.0,51,0.00,,,0.00,weatherlink.com 1.10,2013-02-12 17:44:00,
2013-02-12 12:59:00,44.8,27.0,29.87,West,278,8.0,16.0,51,0.00,,,0.00,weatherlink.com 1.10,2013-02-12 17:59:00,
2013-02-12 13:14:00,44.6,27.0,29.87,NW,318,4.0,13.0,51,0.00,,,0.00,weatherlink.com 1.10,2013-02-12 18:14:00,
2013-02-12 13:29:00,45.0,27.0,29.87,WNW,298,5.0,15.0,49,0.00,,,0.00,weatherlink.com 1.10,2013-02-12 18:29:00,
2013-02-12 13:44:00,44.9,27.0,29.87,WNW,295,9.0,17.0,49,0.00,,,0.00,weatherlink.com 1.10,2013-02-12 18:44:00,
2013-02-12 13:59:00,44.7,26.0,29.87,NNE,19,10.0,17.0,49,0.00,,,0.00,weatherlink.com 1.10,2013-02-12 18:59:00,
2013-02-12 14:14:00,45.1,27.0,29.86,WNW,300,4.0,18.0,49,0.00,,,0.00,weatherlink.com 1.10,2013-02-12 19:14:00,
2013-02-12 14:29:00,45.3,26.0,29.87,WNW,287,5.0,17.0,48,0.00,,,0.00,weatherlink.com 1.10,2013-02-12 19:29:00,
2013-02-12 14:44:00,45.0,26.0,29.87,NNW,345,7.0,19.0,48,0.00,,,0.00,weatherlink.com 1.10,2013-02-12 19:44:00,
2013-02-12 14:59:00,44.9,26.0,29.86,NW,305,3.0,15.0,48,0.00,,,0.00,weatherlink.com 1.10,2013-02-12 19:59:00,
2013-02-12 15:15:00,45.1,26.0,29.86,NW,307,5.0,12.0,48,0.00,,,0.00,weatherlink.com 1.10,2013-02-12 20:15:00,
2013-02-12 15:30:00,44.8,27.0,29.87,NNW,333,4.0,13.0,49,0.00,,,0.00,weatherlink.com 1.10,2013-02-12 20:30:00,
2013-02-12 15:45:00,44.1,26.0,29.86,WNW,287,3.0,13.0,50,0.00,,,0.00,weatherlink.com 1.10,2013-02-12 20:45:00,
2013-02-12 16:00:00,43.9,27.0,29.85,NW,323,6.0,15.0,51,0.00,,,0.00,weatherlink.com 1.10,2013-02-12 21:00:00,
2013-02-12 16:15:00,43.5,26.0,29.83,NW,309,3.0,12.0,51,0.00,,,0.00,weatherlink.com 1.10,2013-02-12 21:15:00,
2013-02-12 16:30:00,43.3,26.0,29.81,WNW,290,8.0,11.0,51,0.00,,,0.00,weatherlink.com 1.10,2013-02-12 21:30:00,
2013-02-12 16:45:00,43.1,26.0,29.82,West,281,4.0,9.0,52,0.00,,,0.00,weatherlink.com 1.10,2013-02-12 21:45:00,
2013-02-12 17:00:00,42.9,26.0,29.85,NW,316,4.0,11.0,52,0.00,,,0.00,weatherlink.com 1.10,2013-02-12 22:00:00,
2013-02-12 17:15:00,42.6,26.0,29.87,WSW,250,4.0,10.0,53,0.00,,,0.00,weatherlink.com 1.10,2013-02-12 22:15:00,
2013-02-12 17:30:00,42.7,27.0,29.88,NW,311,2.0,11.0,54,0.00,,,0.00,weatherlink.com 1.10,2013-02-12 22:30:00,
2013-02-12 17:45:00,42.5,27.0,29.93,WNW,303,5.0,12.0,54,0.00,,,0.00,weatherlink.com 1.10,2013-02-12 22:45:00,
2013-02-12 18:00:00,41.9,27.0,29.93,SW,226,1.0,13.0,55,0.00,,,0.00,weatherlink.com 1.10,2013-02-12 23:00:00,
2013-02-12 18:15:00,41.6,26.0,29.96,WNW,285,12.0,14.0,55,0.00,,,0.00,weatherlink.com 1.10,2013-02-12 23:15:00,
2013-02-12 18:30:00,41.4,26.0,29.95,NW,318,5.0,20.0,54,0.00,,,0.00,weatherlink.com 1.10,2013-02-12 23:30:00,
2013-02-12 18:45:00,41.6,26.0,29.95,WNW,294,3.0,10.0,55,0.00,,,0.00,weatherlink.com 1.10,2013-02-12 23:45:00,
2013-02-12 19:00:00,41.3,26.0,29.94,WNW,287,4.0,12.0,54,0.00,,,0.00,weatherlink.com 1.10,2013-02-13 00:00:00,
2013-02-12 19:15:00,41.1,26.0,29.95,West,278,5.0,11.0,55,0.00,,,0.00,weatherlink.com 1.10,2013-02-13 00:15:00,
2013-02-12 19:30:00,41.2,26.0,29.95,WNW,291,4.0,11.0,55,0.00,,,0.00,weatherlink.com 1.10,2013-02-13 00:30:00,
2013-02-12 19:45:00,41.0,25.0,29.95,WSW,257,3.0,13.0,54,0.00,,,0.00,weatherlink.com 1.10,2013-02-13 00:45:00,
2013-02-12 20:00:00,40.8,26.0,29.95,WNW,303,5.0,16.0,55,0.00,,,0.00,weatherlink.com 1.10,2013-02-13 01:00:00,
2013-02-12 20:15:00,40.6,25.0,29.95,NW,321,5.0,13.0,55,0.00,,,0.00,weatherlink.com 1.10,2013-02-13 01:15:00,
2013-02-12 20:30:00,40.4,26.0,29.94,WNW,283,3.0,9.0,56,0.00,,,0.00,weatherlink.com 1.10,2013-02-13 01:30:00,
2013-02-12 20:45:00,40.1,25.0,29.93,WNW,293,6.0,15.0,56,0.00,,,0.00,weatherlink.com 1.10,2013-02-13 01:45:00,
2013-02-12 21:00:00,40.0,25.0,29.92,NW,311,4.0,10.0,56,0.00,,,0.00,weatherlink.com 1.10,2013-02-13 02:00:00,
2013-02-12 21:15:00,39.8,25.0,29.92,NW,311,7.0,9.0,56,0.00,,,0.00,weatherlink.com 1.10,2013-02-13 02:15:00,
2013-02-12 21:30:00,39.6,25.0,29.90,West,281,2.0,10.0,57,0.00,,,0.00,weatherlink.com 1.10,2013-02-13 02:30:00,
2013-02-12 21:45:00,39.4,25.0,29.90,West,268,10.0,11.0,57,0.00,,,0.00,weatherlink.com 1.10,2013-02-13 02:45:00,
2013-02-12 22:00:00,39.2,25.0,29.90,West,263,8.0,9.0,58,0.00,,,0.00,weatherlink.com 1.10,2013-02-13 03:00:00,
2013-02-12 22:15:00,39.1,25.0,29.90,WNW,299,6.0,9.0,58,0.00,,,0.00,weatherlink.com 1.10,2013-02-13 03:15:00,
2013-02-12 22:30:00,39.1,25.0,29.91,WNW,295,2.0,10.0,58,0.00,,,0.00,weatherlink.com 1.10,2013-02-13 03:30:00,
2013-02-12 22:45:00,38.9,25.0,29.90,NW,307,5.0,9.0,59,0.00,,,0.00,weatherlink.com 1.10,2013-02-13 03:45:00,
2013-02-12 23:00:00,38.8,25.0,29.91,NW,315,4.0,13.0,59,0.00,,,0.00,weatherlink.com 1.10,2013-02-13 04:00:00,
2013-02-12 23:15:00,38.5,26.0,29.91,WNW,283,6.0,10.0,60,0.00,,,0.00,weatherlink.com 1.10,2013-02-13 04:15:00,
2013-02-12 23:30:00,38.4,25.0,29.92,West,263,6.0,8.0,60,0.00,,,0.00,weatherlink.com 1.10,2013-02-13 04:30:00,
2013-02-12 23:45:00,38.2,26.0,29.92,WNW,290,0.0,9.0,61,0.00,,,0.00,weatherlink.com 1.10,2013-02-13 04:45:00,